This is the latest recevied weather packets stored in our database for station/object KG7FOQ-13. If no packets are shown the sender has not sent any weather packets the latest 10 day(s).
| Time | Temp. | Humidity | Pressure | Rain* | Wind** | Luminosity | Snow |
|---|---|---|---|---|---|---|---|
| 1777471480 | 4.44° C | 72% | 1020.3 hPa | 0 mm | - | - | - |
| 1777471179 | 3.89° C | 73% | 1020.3 hPa | 0 mm | - | - | - |
| 1777470879 | 3.33° C | 75% | 1020.3 hPa | 0 mm | - | - | - |
| 1777470578 | 3.33° C | 77% | 1020.3 hPa | 0 mm | - | - | - |
| 1777470278 | 2.78° C | 78% | 1020.2 hPa | 0 mm | - | - | - |
| 1777469977 | 2.78° C | 77% | 1020.3 hPa | 0 mm | - | - | - |
| 1777469677 | 1.67° C | 77% | 1020.1 hPa | 0 mm | - | - | - |
| 1777469376 | 2.22° C | 75% | 1020.3 hPa | 0 mm | - | - | - |
| 1777469076 | 2.22° C | 74% | 1020.1 hPa | 0 mm | - | - | - |
| 1777468775 | 2.78° C | 74% | 1020 hPa | 0 mm | - | - | - |
| 1777468474 | 3.33° C | 70% | 1020 hPa | 0 mm | - | - | - |
| 1777468174 | 3.33° C | 68% | 1019.9 hPa | 0 mm | - | - | - |
| 1777467873 | 3.33° C | 67% | 1020 hPa | 0 mm | - | - | - |
| 1777467573 | 3.89° C | 66% | 1019.9 hPa | 0 mm | - | - | - |
| 1777467272 | 3.89° C | 65% | 1019.7 hPa | 0 mm | - | - | - |
| 1777466971 | 4.44° C | 63% | 1019.7 hPa | 0 mm | - | - | - |
| 1777466714 | 3.89° C | 65% | 1019.6 hPa | 0 mm | - | - | - |
| 1777466670 | 3.89° C | 65% | 1019.6 hPa | 0 mm | - | - | - |
| 1777466370 | 3.33° C | 66% | 1019.6 hPa | 0 mm | - | - | - |
| 1777465469 | 3.33° C | 67% | 1019.5 hPa | 0 mm | - | - | - |
| 1777465168 | 3.89° C | 67% | 1019.6 hPa | 0 mm | - | - | - |
| 1777464867 | 3.89° C | 66% | 1019.5 hPa | 0 mm | - | - | - |
| 1777464567 | 3.33° C | 67% | 1019.4 hPa | 0 mm | - | - | - |
| 1777464266 | 3.33° C | 67% | 1019.4 hPa | 0 mm | - | - | - |
| 1777463966 | 3.33° C | 66% | 1019.4 hPa | 0 mm | - | - | - |
* Rain latest hour (hover to see other rain measurements)
** Current wind speed in m/s (hover to see current wind gust speed)